sensor_id;sensor_type;location;lat;lon;timestamp;temperature;humidity
10247;DHT22;5168;47.854;7.944;2023-05-27T00:01:48;13.90;99.90
10247;DHT22;5168;47.854;7.944;2023-05-27T00:04:14;13.80;99.90
10247;DHT22;5168;47.854;7.944;2023-05-27T00:16:24;13.50;99.90
10247;DHT22;5168;47.854;7.944;2023-05-27T00:18:50;14.00;99.90
10247;DHT22;5168;47.854;7.944;2023-05-27T00:23:45;13.50;99.90
10247;DHT22;5168;47.854;7.944;2023-05-27T00:26:11;13.90;99.90
10247;DHT22;5168;47.854;7.944;2023-05-27T00:28:37;13.30;99.90
10247;DHT22;5168;47.854;7.944;2023-05-27T00:38:21;13.30;99.90
10247;DHT22;5168;47.854;7.944;2023-05-27T00:40:46;13.00;99.90
10247;DHT22;5168;47.854;7.944;2023-05-27T00:45:39;13.00;99.90
10247;DHT22;5168;47.854;7.944;2023-05-27T00:48:04;13.70;99.90
10247;DHT22;5168;47.854;7.944;2023-05-27T00:50:30;13.20;99.90
10247;DHT22;5168;47.854;7.944;2023-05-27T00:55:25;13.20;99.90
10247;DHT22;5168;47.854;7.944;2023-05-27T00:57:50;12.80;99.90
10247;DHT22;5168;47.854;7.944;2023-05-27T01:02:45;13.00;99.90
10247;DHT22;5168;47.854;7.944;2023-05-27T01:05:12;12.90;99.90
10247;DHT22;5168;47.854;7.944;2023-05-27T01:12:59;13.10;99.90
10247;DHT22;5168;47.854;7.944;2023-05-27T01:17:55;12.90;99.90
10247;DHT22;5168;47.854;7.944;2023-05-27T01:20:22;12.90;99.90
10247;DHT22;5168;47.854;7.944;2023-05-27T01:22:50;12.90;99.90
10247;DHT22;5168;47.854;7.944;2023-05-27T01:27:46;12.90;99.90
10247;DHT22;5168;47.854;7.944;2023-05-27T01:30:12;13.40;99.90
10247;DHT22;5168;47.854;7.944;2023-05-27T01:35:27;13.00;99.90
10247;DHT22;5168;47.854;7.944;2023-05-27T01:37:56;12.60;99.90
10247;DHT22;5168;47.854;7.944;2023-05-27T01:40:25;12.90;99.90
10247;DHT22;5168;47.854;7.944;2023-05-27T01:42:52;12.70;99.90
10247;DHT22;5168;47.854;7.944;2023-05-27T01:45:18;12.50;99.90
10247;DHT22;5168;47.854;7.944;2023-05-27T01:47:44;13.40;99.90
10247;DHT22;5168;47.854;7.944;2023-05-27T01:50:10;13.10;99.90
10247;DHT22;5168;47.854;7.944;2023-05-27T01:52:36;13.20;99.90
10247;DHT22;5168;47.854;7.944;2023-05-27T01:55:02;13.10;99.90
10247;DHT22;5168;47.854;7.944;2023-05-27T01:57:29;12.50;99.90
10247;DHT22;5168;47.854;7.944;2023-05-27T02:07:13;12.50;99.90
10247;DHT22;5168;47.854;7.944;2023-05-27T02:09:38;12.60;99.90
10247;DHT22;5168;47.854;7.944;2023-05-27T02:12:04;12.60;99.90
10247;DHT22;5168;47.854;7.944;2023-05-27T02:16:57;12.50;99.90
10247;DHT22;5168;47.854;7.944;2023-05-27T02:19:23;12.40;99.90
10247;DHT22;5168;47.854;7.944;2023-05-27T02:24:16;12.60;99.90
10247;DHT22;5168;47.854;7.944;2023-05-27T02:26:41;12.70;99.90
10247;DHT22;5168;47.854;7.944;2023-05-27T02:29:07;12.90;99.90
10247;DHT22;5168;47.854;7.944;2023-05-27T02:33:58;12.90;99.90
10247;DHT22;5168;47.854;7.944;2023-05-27T02:36:24;12.30;99.90
10247;DHT22;5168;47.854;7.944;2023-05-27T02:41:16;12.70;99.90
10247;DHT22;5168;47.854;7.944;2023-05-27T02:43:41;13.00;99.90
10247;DHT22;5168;47.854;7.944;2023-05-27T02:50:59;12.40;99.90
10247;DHT22;5168;47.854;7.944;2023-05-27T02:53:24;12.80;99.90
10247;DHT22;5168;47.854;7.944;2023-05-27T02:55:50;12.40;99.90
10247;DHT22;5168;47.854;7.944;2023-05-27T03:05:37;12.70;99.90
10247;DHT22;5168;47.854;7.944;2023-05-27T03:08:03;12.30;99.90
10247;DHT22;5168;47.854;7.944;2023-05-27T03:10:31;12.10;99.90
10247;DHT22;5168;47.854;7.944;2023-05-27T03:12:57;12.50;99.90
10247;DHT22;5168;47.854;7.944;2023-05-27T03:20:18;12.50;99.90
10247;DHT22;5168;47.854;7.944;2023-05-27T03:22:44;12.90;99.90
10247;DHT22;5168;47.854;7.944;2023-05-27T03:25:10;12.20;99.90
10247;DHT22;5168;47.854;7.944;2023-05-27T03:27:36;11.90;99.90
10247;DHT22;5168;47.854;7.944;2023-05-27T03:30:03;12.00;99.90
10247;DHT22;5168;47.854;7.944;2023-05-27T03:39:47;12.30;99.90
10247;DHT22;5168;47.854;7.944;2023-05-27T03:42:12;12.60;99.90
10247;DHT22;5168;47.854;7.944;2023-05-27T03:44:38;12.70;99.90
10247;DHT22;5168;47.854;7.944;2023-05-27T03:47:05;12.50;99.90
10247;DHT22;5168;47.854;7.944;2023-05-27T03:56:48;12.20;99.90
10247;DHT22;5168;47.854;7.944;2023-05-27T03:59:13;12.00;99.90
10247;DHT22;5168;47.854;7.944;2023-05-27T04:01:39;12.70;99.90
10247;DHT22;5168;47.854;7.944;2023-05-27T04:04:09;12.40;99.90
10247;DHT22;5168;47.854;7.944;2023-05-27T04:09:00;12.60;99.90
10247;DHT22;5168;47.854;7.944;2023-05-27T04:11:27;12.20;99.90
10247;DHT22;5168;47.854;7.944;2023-05-27T04:13:53;12.30;99.90
10247;DHT22;5168;47.854;7.944;2023-05-27T04:16:20;12.20;99.90
10247;DHT22;5168;47.854;7.944;2023-05-27T04:18:46;12.60;99.90
10247;DHT22;5168;47.854;7.944;2023-05-27T04:21:14;12.80;99.90
10247;DHT22;5168;47.854;7.944;2023-05-27T04:23:40;12.40;99.90
10247;DHT22;5168;47.854;7.944;2023-05-27T04:26:05;12.80;99.90
10247;DHT22;5168;47.854;7.944;2023-05-27T04:30:59;12.10;99.90
10247;DHT22;5168;47.854;7.944;2023-05-27T04:33:25;12.80;99.90
10247;DHT22;5168;47.854;7.944;2023-05-27T04:35:51;12.40;99.90
10247;DHT22;5168;47.854;7.944;2023-05-27T04:38:22;12.50;99.90
10247;DHT22;5168;47.854;7.944;2023-05-27T04:40:49;12.60;99.90
10247;DHT22;5168;47.854;7.944;2023-05-27T04:43:21;12.00;99.90
10247;DHT22;5168;47.854;7.944;2023-05-27T04:45:47;12.70;99.90
10247;DHT22;5168;47.854;7.944;2023-05-27T04:53:06;13.00;99.90
10247;DHT22;5168;47.854;7.944;2023-05-27T04:55:32;12.60;99.90
10247;DHT22;5168;47.854;7.944;2023-05-27T04:57:58;13.30;99.90
10247;DHT22;5168;47.854;7.944;2023-05-27T05:10:29;13.80;99.90
10247;DHT22;5168;47.854;7.944;2023-05-27T05:12:55;13.60;99.90
10247;DHT22;5168;47.854;7.944;2023-05-27T05:15:20;13.70;99.90
10247;DHT22;5168;47.854;7.944;2023-05-27T05:17:46;13.70;99.90
10247;DHT22;5168;47.854;7.944;2023-05-27T05:20:12;14.50;99.90
10247;DHT22;5168;47.854;7.944;2023-05-27T05:22:37;14.90;99.90
10247;DHT22;5168;47.854;7.944;2023-05-27T05:25:03;14.60;99.90
10247;DHT22;5168;47.854;7.944;2023-05-27T05:27:29;15.00;99.90
10247;DHT22;5168;47.854;7.944;2023-05-27T05:37:14;15.30;99.90
10247;DHT22;5168;47.854;7.944;2023-05-27T05:39:41;15.20;99.90
10247;DHT22;5168;47.854;7.944;2023-05-27T05:42:08;15.10;99.90
10247;DHT22;5168;47.854;7.944;2023-05-27T05:47:00;15.40;99.90
10247;DHT22;5168;47.854;7.944;2023-05-27T05:49:25;15.40;99.90
10247;DHT22;5168;47.854;7.944;2023-05-27T05:51:51;16.00;99.90
10247;DHT22;5168;47.854;7.944;2023-05-27T05:59:08;15.80;99.90
10247;DHT22;5168;47.854;7.944;2023-05-27T06:01:34;16.10;99.90
10247;DHT22;5168;47.854;7.944;2023-05-27T06:03:59;16.10;99.90
10247;DHT22;5168;47.854;7.944;2023-05-27T06:06:30;16.60;99.90
10247;DHT22;5168;47.854;7.944;2023-05-27T06:08:55;16.70;99.90
10247;DHT22;5168;47.854;7.944;2023-05-27T06:13:47;16.60;99.90
10247;DHT22;5168;47.854;7.944;2023-05-27T06:21:05;16.50;99.90
10247;DHT22;5168;47.854;7.944;2023-05-27T06:23:31;16.80;99.90
10247;DHT22;5168;47.854;7.944;2023-05-27T06:25:56;16.90;99.90
10247;DHT22;5168;47.854;7.944;2023-05-27T06:35:39;17.80;99.90
10247;DHT22;5168;47.854;7.944;2023-05-27T06:38:06;17.90;99.90
10247;DHT22;5168;47.854;7.944;2023-05-27T06:40:31;18.50;99.90
10247;DHT22;5168;47.854;7.944;2023-05-27T06:42:57;17.90;99.90
10247;DHT22;5168;47.854;7.944;2023-05-27T06:45:26;18.50;99.90
10247;DHT22;5168;47.854;7.944;2023-05-27T06:47:51;18.60;99.90
10247;DHT22;5168;47.854;7.944;2023-05-27T07:00:01;19.60;99.90
10247;DHT22;5168;47.854;7.944;2023-05-27T07:09:45;19.80;99.90
10247;DHT22;5168;47.854;7.944;2023-05-27T07:17:03;19.50;99.90
10247;DHT22;5168;47.854;7.944;2023-05-27T07:21:54;19.80;99.90
10247;DHT22;5168;47.854;7.944;2023-05-27T07:24:20;19.60;99.90
10247;DHT22;5168;47.854;7.944;2023-05-27T07:26:45;20.30;99.90
10247;DHT22;5168;47.854;7.944;2023-05-27T07:29:11;20.70;99.90
10247;DHT22;5168;47.854;7.944;2023-05-27T07:31:37;20.30;99.90
10247;DHT22;5168;47.854;7.944;2023-05-27T07:34:02;20.60;99.90
10247;DHT22;5168;47.854;7.944;2023-05-27T07:38:54;20.30;99.90
10247;DHT22;5168;47.854;7.944;2023-05-27T07:41:21;20.10;99.90
10247;DHT22;5168;47.854;7.944;2023-05-27T07:43:47;20.40;99.90
10247;DHT22;5168;47.854;7.944;2023-05-27T07:48:38;20.00;99.90
10247;DHT22;5168;47.854;7.944;2023-05-27T07:51:04;20.50;99.90
10247;DHT22;5168;47.854;7.944;2023-05-27T08:00:48;20.60;99.90
10247;DHT22;5168;47.854;7.944;2023-05-27T08:03:13;20.10;99.90
10247;DHT22;5168;47.854;7.944;2023-05-27T08:05:39;20.20;99.90
10247;DHT22;5168;47.854;7.944;2023-05-27T08:08:04;20.60;99.90
10247;DHT22;5168;47.854;7.944;2023-05-27T08:10:30;20.90;99.90
10247;DHT22;5168;47.854;7.944;2023-05-27T08:15:21;20.60;99.90
10247;DHT22;5168;47.854;7.944;2023-05-27T08:17:47;21.00;99.90
10247;DHT22;5168;47.854;7.944;2023-05-27T08:25:05;21.30;99.90
10247;DHT22;5168;47.854;7.944;2023-05-27T08:32:42;21.10;99.90
10247;DHT22;5168;47.854;7.944;2023-05-27T08:35:08;21.10;99.90
10247;DHT22;5168;47.854;7.944;2023-05-27T08:37:34;21.70;99.90
10247;DHT22;5168;47.854;7.944;2023-05-27T08:52:11;21.70;99.20
10247;DHT22;5168;47.854;7.944;2023-05-27T08:54:40;22.00;99.90
10247;DHT22;5168;47.854;7.944;2023-05-27T08:57:07;22.10;99.90
10247;DHT22;5168;47.854;7.944;2023-05-27T08:59:34;22.20;99.90
10247;DHT22;5168;47.854;7.944;2023-05-27T09:02:01;22.10;99.90
10247;DHT22;5168;47.854;7.944;2023-05-27T09:04:28;22.70;99.90
10247;DHT22;5168;47.854;7.944;2023-05-27T09:06:54;21.90;99.90
10247;DHT22;5168;47.854;7.944;2023-05-27T09:09:19;22.70;99.90
10247;DHT22;5168;47.854;7.944;2023-05-27T09:14:20;22.60;98.10
10247;DHT22;5168;47.854;7.944;2023-05-27T09:19:30;22.80;99.00
10247;DHT22;5168;47.854;7.944;2023-05-27T09:21:55;23.00;99.80
10247;DHT22;5168;47.854;7.944;2023-05-27T09:24:23;22.90;99.70
10247;DHT22;5168;47.854;7.944;2023-05-27T09:26:51;23.30;98.30
10247;DHT22;5168;47.854;7.944;2023-05-27T09:29:18;23.40;99.60
10247;DHT22;5168;47.854;7.944;2023-05-27T09:31:45;23.40;99.60
10247;DHT22;5168;47.854;7.944;2023-05-27T09:34:15;23.60;99.90
10247;DHT22;5168;47.854;7.944;2023-05-27T09:36:49;23.40;99.40
10247;DHT22;5168;47.854;7.944;2023-05-27T09:39:17;24.10;98.50
10247;DHT22;5168;47.854;7.944;2023-05-27T09:41:49;23.80;98.10
10247;DHT22;5168;47.854;7.944;2023-05-27T09:44:15;23.70;98.40
10247;DHT22;5168;47.854;7.944;2023-05-27T09:46:40;24.00;96.00
10247;DHT22;5168;47.854;7.944;2023-05-27T09:49:09;23.80;96.00
10247;DHT22;5168;47.854;7.944;2023-05-27T09:51:35;24.40;96.20
10247;DHT22;5168;47.854;7.944;2023-05-27T09:54:03;23.90;96.00
10247;DHT22;5168;47.854;7.944;2023-05-27T09:56:29;24.30;95.30
10247;DHT22;5168;47.854;7.944;2023-05-27T09:58:56;24.50;94.70
10247;DHT22;5168;47.854;7.944;2023-05-27T10:01:28;24.00;93.40
10247;DHT22;5168;47.854;7.944;2023-05-27T10:03:55;24.30;93.20
10247;DHT22;5168;47.854;7.944;2023-05-27T10:06:24;24.50;92.30
10247;DHT22;5168;47.854;7.944;2023-05-27T10:08:54;24.50;93.40
10247;DHT22;5168;47.854;7.944;2023-05-27T10:11:21;24.40;92.40
10247;DHT22;5168;47.854;7.944;2023-05-27T10:13:48;24.10;92.10
10247;DHT22;5168;47.854;7.944;2023-05-27T10:16:26;24.20;92.20
10247;DHT22;5168;47.854;7.944;2023-05-27T10:18:57;24.10;93.40
10247;DHT22;5168;47.854;7.944;2023-05-27T10:21:26;24.60;94.60
10247;DHT22;5168;47.854;7.944;2023-05-27T10:23:59;24.70;95.30
10247;DHT22;5168;47.854;7.944;2023-05-27T10:26:38;24.80;94.90
10247;DHT22;5168;47.854;7.944;2023-05-27T10:29:17;24.80;94.20
10247;DHT22;5168;47.854;7.944;2023-05-27T10:31:49;25.20;93.50
10247;DHT22;5168;47.854;7.944;2023-05-27T10:34:15;25.20;92.80
10247;DHT22;5168;47.854;7.944;2023-05-27T10:36:43;25.40;92.40
10247;DHT22;5168;47.854;7.944;2023-05-27T10:39:16;25.60;92.70
10247;DHT22;5168;47.854;7.944;2023-05-27T10:41:53;25.40;90.10
10247;DHT22;5168;47.854;7.944;2023-05-27T10:44:37;25.00;92.00
10247;DHT22;5168;47.854;7.944;2023-05-27T10:47:12;24.80;91.50
10247;DHT22;5168;47.854;7.944;2023-05-27T10:49:45;24.70;91.50
10247;DHT22;5168;47.854;7.944;2023-05-27T10:52:13;25.10;90.00
10247;DHT22;5168;47.854;7.944;2023-05-27T10:54:46;25.70;92.80
10247;DHT22;5168;47.854;7.944;2023-05-27T10:57:12;25.70;91.50
10247;DHT22;5168;47.854;7.944;2023-05-27T10:59:48;25.30;86.90
10247;DHT22;5168;47.854;7.944;2023-05-27T11:02:18;25.80;89.40
10247;DHT22;5168;47.854;7.944;2023-05-27T11:04:45;25.70;91.70
10247;DHT22;5168;47.854;7.944;2023-05-27T11:07:18;25.90;87.30
10247;DHT22;5168;47.854;7.944;2023-05-27T11:09:46;25.90;88.90
10247;DHT22;5168;47.854;7.944;2023-05-27T11:12:19;26.00;89.10
10247;DHT22;5168;47.854;7.944;2023-05-27T11:14:50;26.00;84.20
10247;DHT22;5168;47.854;7.944;2023-05-27T11:17:17;25.70;86.00
10247;DHT22;5168;47.854;7.944;2023-05-27T11:19:43;25.30;87.90
10247;DHT22;5168;47.854;7.944;2023-05-27T11:22:13;25.90;84.50
10247;DHT22;5168;47.854;7.944;2023-05-27T11:24:39;25.70;90.50
10247;DHT22;5168;47.854;7.944;2023-05-27T11:27:13;26.10;87.90
10247;DHT22;5168;47.854;7.944;2023-05-27T11:29:39;26.20;85.90
10247;DHT22;5168;47.854;7.944;2023-05-27T11:32:05;26.30;85.70
10247;DHT22;5168;47.854;7.944;2023-05-27T11:34:34;26.30;85.90
10247;DHT22;5168;47.854;7.944;2023-05-27T11:37:03;26.30;83.40
10247;DHT22;5168;47.854;7.944;2023-05-27T11:39:30;26.30;84.70
10247;DHT22;5168;47.854;7.944;2023-05-27T11:41:55;26.10;81.10
10247;DHT22;5168;47.854;7.944;2023-05-27T11:44:22;26.20;81.30
10247;DHT22;5168;47.854;7.944;2023-05-27T11:46:50;25.80;79.70
10247;DHT22;5168;47.854;7.944;2023-05-27T11:49:19;26.00;83.70
10247;DHT22;5168;47.854;7.944;2023-05-27T11:51:49;26.10;82.90
10247;DHT22;5168;47.854;7.944;2023-05-27T11:54:25;26.20;80.50
10247;DHT22;5168;47.854;7.944;2023-05-27T11:56:53;25.90;81.80
10247;DHT22;5168;47.854;7.944;2023-05-27T11:59:20;26.00;81.10
10247;DHT22;5168;47.854;7.944;2023-05-27T12:01:46;26.20;82.20
10247;DHT22;5168;47.854;7.944;2023-05-27T12:06:38;26.10;79.40
10247;DHT22;5168;47.854;7.944;2023-05-27T12:09:05;26.10;78.00
10247;DHT22;5168;47.854;7.944;2023-05-27T12:11:31;25.80;79.80
10247;DHT22;5168;47.854;7.944;2023-05-27T12:13:57;25.80;77.10
10247;DHT22;5168;47.854;7.944;2023-05-27T12:16:23;25.70;75.30
10247;DHT22;5168;47.854;7.944;2023-05-27T12:21:15;25.00;78.00
10247;DHT22;5168;47.854;7.944;2023-05-27T12:23:41;25.40;77.10
10247;DHT22;5168;47.854;7.944;2023-05-27T12:26:07;24.80;81.50
10247;DHT22;5168;47.854;7.944;2023-05-27T12:33:25;25.10;78.50
10247;DHT22;5168;47.854;7.944;2023-05-27T12:35:51;25.00;78.80
10247;DHT22;5168;47.854;7.944;2023-05-27T12:38:17;25.10;75.70
10247;DHT22;5168;47.854;7.944;2023-05-27T12:40:42;25.40;77.70
10247;DHT22;5168;47.854;7.944;2023-05-27T12:43:08;25.60;79.40
10247;DHT22;5168;47.854;7.944;2023-05-27T12:47:59;25.90;78.90
10247;DHT22;5168;47.854;7.944;2023-05-27T12:50:25;25.60;76.80
10247;DHT22;5168;47.854;7.944;2023-05-27T12:52:51;25.50;73.50
10247;DHT22;5168;47.854;7.944;2023-05-27T12:55:19;25.30;74.00
10247;DHT22;5168;47.854;7.944;2023-05-27T12:57:48;25.50;78.90
10247;DHT22;5168;47.854;7.944;2023-05-27T13:00:19;25.80;78.00
10247;DHT22;5168;47.854;7.944;2023-05-27T13:02:46;26.00;79.50
10247;DHT22;5168;47.854;7.944;2023-05-27T13:05:15;25.70;74.60
10247;DHT22;5168;47.854;7.944;2023-05-27T13:08:01;25.60;73.00
10247;DHT22;5168;47.854;7.944;2023-05-27T13:10:28;25.20;70.20
10247;DHT22;5168;47.854;7.944;2023-05-27T13:12:55;25.20;70.90
10247;DHT22;5168;47.854;7.944;2023-05-27T13:15:21;25.10;71.50
10247;DHT22;5168;47.854;7.944;2023-05-27T13:17:50;25.10;71.30
10247;DHT22;5168;47.854;7.944;2023-05-27T13:20:15;25.10;71.20
10247;DHT22;5168;47.854;7.944;2023-05-27T13:22:42;25.50;71.00
10247;DHT22;5168;47.854;7.944;2023-05-27T13:25:08;25.00;69.30
10247;DHT22;5168;47.854;7.944;2023-05-27T13:27:34;25.30;66.60
10247;DHT22;5168;47.854;7.944;2023-05-27T13:29:59;25.10;67.30
10247;DHT22;5168;47.854;7.944;2023-05-27T13:32:25;25.40;68.00
10247;DHT22;5168;47.854;7.944;2023-05-27T13:34:51;25.30;70.30
10247;DHT22;5168;47.854;7.944;2023-05-27T13:39:43;25.20;69.80
10247;DHT22;5168;47.854;7.944;2023-05-27T13:42:12;24.90;71.90
10247;DHT22;5168;47.854;7.944;2023-05-27T13:44:38;24.90;72.60
10247;DHT22;5168;47.854;7.944;2023-05-27T13:47:04;25.30;69.40
10247;DHT22;5168;47.854;7.944;2023-05-27T13:49:29;25.20;69.60
10247;DHT22;5168;47.854;7.944;2023-05-27T13:51:55;24.40;68.50
10247;DHT22;5168;47.854;7.944;2023-05-27T13:54:21;24.60;73.00
10247;DHT22;5168;47.854;7.944;2023-05-27T13:56:46;24.60;75.70
10247;DHT22;5168;47.854;7.944;2023-05-27T13:59:12;24.50;74.60
10247;DHT22;5168;47.854;7.944;2023-05-27T14:01:38;24.80;70.30
10247;DHT22;5168;47.854;7.944;2023-05-27T14:04:04;24.20;66.10
10247;DHT22;5168;47.854;7.944;2023-05-27T14:06:29;24.30;68.50
10247;DHT22;5168;47.854;7.944;2023-05-27T14:08:56;24.10;71.80
10247;DHT22;5168;47.854;7.944;2023-05-27T14:11:22;24.30;70.00
10247;DHT22;5168;47.854;7.944;2023-05-27T14:13:48;24.80;70.40
10247;DHT22;5168;47.854;7.944;2023-05-27T14:16:14;24.00;72.30
10247;DHT22;5168;47.854;7.944;2023-05-27T14:18:40;23.80;72.50
10247;DHT22;5168;47.854;7.944;2023-05-27T14:21:05;24.40;73.00
10247;DHT22;5168;47.854;7.944;2023-05-27T14:23:31;23.50;72.90
10247;DHT22;5168;47.854;7.944;2023-05-27T14:25:57;23.60;74.10
10247;DHT22;5168;47.854;7.944;2023-05-27T14:28:22;23.50;74.60
10247;DHT22;5168;47.854;7.944;2023-05-27T14:30:48;23.50;77.00
10247;DHT22;5168;47.854;7.944;2023-05-27T14:33:13;23.10;75.90
10247;DHT22;5168;47.854;7.944;2023-05-27T14:35:39;23.40;75.40
10247;DHT22;5168;47.854;7.944;2023-05-27T14:38:05;23.80;77.20
10247;DHT22;5168;47.854;7.944;2023-05-27T14:40:32;23.50;74.50
10247;DHT22;5168;47.854;7.944;2023-05-27T14:42:58;24.40;70.30
10247;DHT22;5168;47.854;7.944;2023-05-27T14:45:24;23.60;71.10
10247;DHT22;5168;47.854;7.944;2023-05-27T14:50:20;23.90;73.80
10247;DHT22;5168;47.854;7.944;2023-05-27T14:52:46;24.00;74.10
10247;DHT22;5168;47.854;7.944;2023-05-27T14:55:12;24.10;73.40
10247;DHT22;5168;47.854;7.944;2023-05-27T14:57:37;23.50;74.60
10247;DHT22;5168;47.854;7.944;2023-05-27T15:00:06;23.20;77.20
10247;DHT22;5168;47.854;7.944;2023-05-27T15:05:01;22.60;76.10
10247;DHT22;5168;47.854;7.944;2023-05-27T15:07:28;22.50;76.60
10247;DHT22;5168;47.854;7.944;2023-05-27T15:09:53;22.30;78.00
10247;DHT22;5168;47.854;7.944;2023-05-27T15:12:19;22.20;79.00
10247;DHT22;5168;47.854;7.944;2023-05-27T15:19:37;22.00;77.20
10247;DHT22;5168;47.854;7.944;2023-05-27T15:22:03;21.20;77.10
10247;DHT22;5168;47.854;7.944;2023-05-27T15:24:29;21.70;81.00
10247;DHT22;5168;47.854;7.944;2023-05-27T15:26:54;21.90;78.70
10247;DHT22;5168;47.854;7.944;2023-05-27T15:29:20;21.90;79.00
10247;DHT22;5168;47.854;7.944;2023-05-27T15:31:47;22.30;79.50
10247;DHT22;5168;47.854;7.944;2023-05-27T15:34:12;21.90;77.30
10247;DHT22;5168;47.854;7.944;2023-05-27T15:36:38;21.90;75.90
10247;DHT22;5168;47.854;7.944;2023-05-27T15:39:04;21.70;77.50
10247;DHT22;5168;47.854;7.944;2023-05-27T15:41:31;22.00;76.90
10247;DHT22;5168;47.854;7.944;2023-05-27T15:43:57;22.30;78.40
10247;DHT22;5168;47.854;7.944;2023-05-27T15:46:23;22.20;78.10
10247;DHT22;5168;47.854;7.944;2023-05-27T15:48:48;21.70;76.50
10247;DHT22;5168;47.854;7.944;2023-05-27T15:51:14;22.50;80.60
10247;DHT22;5168;47.854;7.944;2023-05-27T15:53:40;22.60;80.30
10247;DHT22;5168;47.854;7.944;2023-05-27T15:56:05;22.20;77.30
10247;DHT22;5168;47.854;7.944;2023-05-27T15:58:31;22.20;77.70
10247;DHT22;5168;47.854;7.944;2023-05-27T16:00:56;22.10;77.60
10247;DHT22;5168;47.854;7.944;2023-05-27T16:03:22;21.00;78.60
10247;DHT22;5168;47.854;7.944;2023-05-27T16:05:47;21.40;80.20
10247;DHT22;5168;47.854;7.944;2023-05-27T16:08:13;20.80;80.60
10247;DHT22;5168;47.854;7.944;2023-05-27T16:11:05;21.00;80.60
10247;DHT22;5168;47.854;7.944;2023-05-27T16:15:57;20.00;81.30
10247;DHT22;5168;47.854;7.944;2023-05-27T16:18:23;20.10;82.10
10247;DHT22;5168;47.854;7.944;2023-05-27T16:20:48;20.20;83.50
10247;DHT22;5168;47.854;7.944;2023-05-27T16:25:43;20.50;84.10
10247;DHT22;5168;47.854;7.944;2023-05-27T16:28:08;20.30;84.20
10247;DHT22;5168;47.854;7.944;2023-05-27T16:33:00;19.70;82.00
10247;DHT22;5168;47.854;7.944;2023-05-27T16:35:25;20.00;85.20
10247;DHT22;5168;47.854;7.944;2023-05-27T16:37:51;19.40;84.20
10247;DHT22;5168;47.854;7.944;2023-05-27T16:42:43;20.00;86.80
10247;DHT22;5168;47.854;7.944;2023-05-27T16:45:09;19.50;85.20
10247;DHT22;5168;47.854;7.944;2023-05-27T16:47:35;19.80;85.60
10247;DHT22;5168;47.854;7.944;2023-05-27T16:50:01;19.60;84.20
10247;DHT22;5168;47.854;7.944;2023-05-27T16:54:53;19.60;86.60
10247;DHT22;5168;47.854;7.944;2023-05-27T16:57:18;19.10;86.00
10247;DHT22;5168;47.854;7.944;2023-05-27T16:59:44;19.80;85.60
10247;DHT22;5168;47.854;7.944;2023-05-27T17:04:36;19.20;84.50
10247;DHT22;5168;47.854;7.944;2023-05-27T17:07:02;19.80;85.30
10247;DHT22;5168;47.854;7.944;2023-05-27T17:09:28;19.40;85.30
10247;DHT22;5168;47.854;7.944;2023-05-27T17:11:55;19.70;86.60
10247;DHT22;5168;47.854;7.944;2023-05-27T17:14:21;19.40;87.30
10247;DHT22;5168;47.854;7.944;2023-05-27T17:16:47;19.10;87.90
10247;DHT22;5168;47.854;7.944;2023-05-27T17:19:13;18.70;87.20
10247;DHT22;5168;47.854;7.944;2023-05-27T17:24:05;18.80;86.90
10247;DHT22;5168;47.854;7.944;2023-05-27T17:36:15;18.60;90.00
10247;DHT22;5168;47.854;7.944;2023-05-27T17:38:40;17.90;89.70
10247;DHT22;5168;47.854;7.944;2023-05-27T17:41:06;18.30;90.80
10247;DHT22;5168;47.854;7.944;2023-05-27T17:43:33;18.40;90.70
10247;DHT22;5168;47.854;7.944;2023-05-27T17:45:59;17.70;90.70
10247;DHT22;5168;47.854;7.944;2023-05-27T17:48:25;17.70;91.10
10247;DHT22;5168;47.854;7.944;2023-05-27T17:50:50;17.40;90.80
10247;DHT22;5168;47.854;7.944;2023-05-27T17:53:19;17.90;90.80
10247;DHT22;5168;47.854;7.944;2023-05-27T17:55:45;17.90;91.90
10247;DHT22;5168;47.854;7.944;2023-05-27T17:58:11;17.50;91.60
10247;DHT22;5168;47.854;7.944;2023-05-27T18:00:36;17.60;90.80
10247;DHT22;5168;47.854;7.944;2023-05-27T18:05:33;17.70;92.60
10247;DHT22;5168;47.854;7.944;2023-05-27T18:07:59;17.40;92.10
10247;DHT22;5168;47.854;7.944;2023-05-27T18:10:26;17.10;92.20
10247;DHT22;5168;47.854;7.944;2023-05-27T18:12:52;17.00;92.70
10247;DHT22;5168;47.854;7.944;2023-05-27T18:15:19;17.30;91.60
10247;DHT22;5168;47.854;7.944;2023-05-27T18:17:45;16.80;92.80
10247;DHT22;5168;47.854;7.944;2023-05-27T18:22:37;17.10;91.60
10247;DHT22;5168;47.854;7.944;2023-05-27T18:25:04;17.60;93.70
10247;DHT22;5168;47.854;7.944;2023-05-27T18:27:31;16.80;93.20
10247;DHT22;5168;47.854;7.944;2023-05-27T18:29:57;17.10;93.60
10247;DHT22;5168;47.854;7.944;2023-05-27T18:32:22;16.80;94.00
10247;DHT22;5168;47.854;7.944;2023-05-27T18:34:48;16.60;92.20
10247;DHT22;5168;47.854;7.944;2023-05-27T18:37:13;16.80;93.80
10247;DHT22;5168;47.854;7.944;2023-05-27T18:39:39;17.00;94.20
10247;DHT22;5168;47.854;7.944;2023-05-27T18:42:05;17.10;94.60
10247;DHT22;5168;47.854;7.944;2023-05-27T18:46:56;16.50;93.90
10247;DHT22;5168;47.854;7.944;2023-05-27T18:49:22;16.20;94.90
10247;DHT22;5168;47.854;7.944;2023-05-27T18:51:52;16.50;95.20
10247;DHT22;5168;47.854;7.944;2023-05-27T18:54:18;16.50;95.60
10247;DHT22;5168;47.854;7.944;2023-05-27T18:56:44;15.90;95.10
10247;DHT22;5168;47.854;7.944;2023-05-27T18:59:10;16.00;95.30
10247;DHT22;5168;47.854;7.944;2023-05-27T19:01:35;15.70;95.50
10247;DHT22;5168;47.854;7.944;2023-05-27T19:04:02;16.00;96.00
10247;DHT22;5168;47.854;7.944;2023-05-27T19:06:28;16.40;95.20
10247;DHT22;5168;47.854;7.944;2023-05-27T19:08:54;15.90;95.60
10247;DHT22;5168;47.854;7.944;2023-05-27T19:18:38;15.80;96.20
10247;DHT22;5168;47.854;7.944;2023-05-27T19:23:30;16.00;97.10
10247;DHT22;5168;47.854;7.944;2023-05-27T19:25:56;15.20;96.30
10247;DHT22;5168;47.854;7.944;2023-05-27T19:28:21;15.50;97.30
10247;DHT22;5168;47.854;7.944;2023-05-27T19:30:47;15.50;97.40
10247;DHT22;5168;47.854;7.944;2023-05-27T19:33:12;15.40;97.80
10247;DHT22;5168;47.854;7.944;2023-05-27T19:35:40;15.80;98.40
10247;DHT22;5168;47.854;7.944;2023-05-27T19:38:05;15.90;98.90
10247;DHT22;5168;47.854;7.944;2023-05-27T19:40:32;15.40;98.90
10247;DHT22;5168;47.854;7.944;2023-05-27T19:42:57;15.50;98.60
10247;DHT22;5168;47.854;7.944;2023-05-27T19:50:16;15.20;99.60
10247;DHT22;5168;47.854;7.944;2023-05-27T19:52:43;14.70;99.20
10247;DHT22;5168;47.854;7.944;2023-05-27T19:55:09;14.60;99.30
10247;DHT22;5168;47.854;7.944;2023-05-27T19:57:35;15.10;99.70
10247;DHT22;5168;47.854;7.944;2023-05-27T20:00:00;15.00;99.20
10247;DHT22;5168;47.854;7.944;2023-05-27T20:09:44;15.00;99.00
10247;DHT22;5168;47.854;7.944;2023-05-27T20:12:12;15.10;99.30
10247;DHT22;5168;47.854;7.944;2023-05-27T20:14:37;14.70;99.00
10247;DHT22;5168;47.854;7.944;2023-05-27T20:17:03;15.30;99.10
10247;DHT22;5168;47.854;7.944;2023-05-27T20:19:29;15.10;98.80
10247;DHT22;5168;47.854;7.944;2023-05-27T20:24:20;14.60;98.90
10247;DHT22;5168;47.854;7.944;2023-05-27T20:26:46;14.40;99.00
10247;DHT22;5168;47.854;7.944;2023-05-27T20:29:12;14.20;98.70